createdAt,value
2022-08-05T00:02:07.301Z,38.35
2022-08-05T00:04:35.093Z,38.40
2022-08-05T00:07:27.164Z,39.07
2022-08-05T00:09:48.952Z,39.45
2022-08-05T00:12:15.977Z,39.21
2022-08-05T00:14:43.700Z,39.45
2022-08-05T00:17:18.898Z,39.34
2022-08-05T00:20:02.786Z,39.19
2022-08-05T00:22:30.121Z,39.21
2022-08-05T00:24:58.162Z,39.10
2022-08-05T00:27:36.356Z,39.23
2022-08-05T00:30:05.527Z,39.79
2022-08-05T00:32:38.306Z,39.77
2022-08-05T00:35:08.243Z,39.99
2022-08-05T00:37:53.604Z,40.02
2022-08-05T00:40:28.287Z,40.36
2022-08-05T00:42:58.033Z,41.02
2022-08-05T00:45:38.930Z,41.88
2022-08-05T00:48:14.569Z,42.40
2022-08-05T00:50:44.192Z,42.21
2022-08-05T00:54:01.162Z,41.65
2022-08-05T00:56:10.650Z,41.07
2022-08-05T00:58:38.911Z,41.44
2022-08-05T01:01:10.529Z,41.94
2022-08-05T01:03:39.245Z,42.27
2022-08-05T01:06:06.661Z,42.59
2022-08-05T01:08:44.536Z,42.75
2022-08-05T01:11:37.436Z,42.35
2022-08-05T01:14:08.713Z,42.40
2022-08-05T01:17:14.068Z,42.58
2022-08-05T01:20:00.894Z,42.64
2022-08-05T01:22:32.400Z,42.62
2022-08-05T01:25:39.789Z,42.69
2022-08-05T01:28:28.133Z,43.32
2022-08-05T01:31:09.447Z,43.49
2022-08-05T01:33:49.032Z,43.79
2022-08-05T01:36:19.126Z,43.95
2022-08-05T01:38:49.962Z,44.27
2022-08-05T01:41:22.816Z,44.25
2022-08-05T01:43:54.901Z,44.67
2022-08-05T01:46:42.099Z,44.49
2022-08-05T01:49:24.383Z,44.94
2022-08-05T01:51:59.120Z,44.95
2022-08-05T01:54:32.542Z,45.18
2022-08-05T01:58:11.344Z,45.56
2022-08-05T01:59:51.523Z,45.73
2022-08-05T02:02:26.252Z,45.65
2022-08-05T02:05:00.800Z,46.08
2022-08-05T02:07:30.344Z,45.79
2022-08-05T02:09:58.739Z,45.75
2022-08-05T02:12:44.667Z,45.66
2022-08-05T02:15:25.974Z,46.17
2022-08-05T02:18:31.052Z,46.26
2022-08-05T02:21:14.747Z,46.73
2022-08-05T02:23:44.864Z,46.68
2022-08-05T02:26:19.098Z,46.33
2022-08-05T02:28:50.097Z,46.59
2022-08-05T02:31:26.880Z,46.89
2022-08-05T02:33:59.679Z,46.90
2022-08-05T02:36:31.451Z,47.14
2022-08-05T02:39:01.690Z,47.27
2022-08-05T02:41:43.415Z,47.55
2022-08-05T02:44:19.242Z,47.71
2022-08-05T02:46:58.989Z,47.89
2022-08-05T02:49:36.879Z,48.07
2022-08-05T02:52:11.558Z,48.19
2022-08-05T02:54:42.443Z,48.65
2022-08-05T02:58:20.023Z,48.73
2022-08-05T03:00:11.626Z,48.69
2022-08-05T03:02:40.789Z,49.23
2022-08-05T03:05:11.726Z,48.88
2022-08-05T03:08:00.810Z,48.87
2022-08-05T03:10:27.000Z,48.84
2022-08-05T03:12:54.412Z,49.20
2022-08-05T03:15:24.914Z,49.23
2022-08-05T03:17:55.967Z,49.31
2022-08-05T03:20:24.979Z,49.25
2022-08-05T03:22:53.198Z,49.10
2022-08-05T03:26:03.591Z,49.68
2022-08-05T03:28:14.117Z,49.47
2022-08-05T03:30:42.468Z,49.79
2022-08-05T03:33:09.700Z,49.60
2022-08-05T03:35:40.840Z,49.37
2022-08-05T03:38:11.774Z,49.50
2022-08-05T03:40:48.596Z,49.58
2022-08-05T03:44:09.467Z,49.19
2022-08-05T03:46:05.256Z,48.88
2022-08-05T03:48:35.483Z,48.50
2022-08-05T03:52:37.866Z,48.26
2022-08-05T03:55:53.478Z,47.69
2022-08-05T03:56:58.972Z,47.52
2022-08-05T03:59:46.849Z,47.06
2022-08-05T04:02:38.218Z,46.73
2022-08-05T04:05:14.037Z,46.26
2022-08-05T04:07:58.195Z,46.21
2022-08-05T04:10:30.929Z,45.56
2022-08-05T04:12:59.454Z,45.20
2022-08-05T04:15:27.896Z,45.13
2022-08-05T04:18:07.006Z,44.79
2022-08-05T04:20:34.595Z,44.69
2022-08-05T04:23:02.429Z,44.20
2022-08-05T04:25:58.047Z,44.26
2022-08-05T04:28:18.637Z,43.91
2022-08-05T04:30:45.975Z,43.69
2022-08-05T04:33:13.505Z,43.46
2022-08-05T04:36:11.403Z,43.23
2022-08-05T04:38:39.714Z,43.02
2022-08-05T04:41:09.654Z,42.83
2022-08-05T04:43:40.514Z,42.29
2022-08-05T04:46:13.766Z,42.30
2022-08-05T04:48:54.972Z,42.39
2022-08-05T04:51:24.963Z,42.33
2022-08-05T04:53:51.793Z,41.99
2022-08-05T04:56:34.298Z,41.81
2022-08-05T04:59:21.480Z,41.72
2022-08-05T05:02:07.373Z,41.78
2022-08-05T05:04:36.154Z,41.88
2022-08-05T05:07:05.398Z,41.73
2022-08-05T05:09:37.467Z,41.69
2022-08-05T05:12:05.195Z,41.33
2022-08-05T05:14:33.183Z,41.57
2022-08-05T05:17:03.849Z,41.90
2022-08-05T05:19:36.398Z,41.75
2022-08-05T05:22:24.515Z,41.65
2022-08-05T05:24:57.732Z,41.75
2022-08-05T05:27:44.479Z,41.98
2022-08-05T05:30:30.802Z,41.64
2022-08-05T05:33:09.164Z,41.27
2022-08-05T05:35:47.668Z,41.09
2022-08-05T05:38:22.851Z,41.15
2022-08-05T05:40:57.253Z,40.73
2022-08-05T05:43:57.478Z,41.03
2022-08-05T05:46:15.854Z,41.19
2022-08-05T05:48:47.846Z,41.19
2022-08-05T05:51:49.907Z,41.11
2022-08-05T05:54:17.617Z,41.04
2022-08-05T05:56:47.462Z,41.48
2022-08-05T05:59:14.248Z,41.07
2022-08-05T06:01:57.945Z,41.50
2022-08-05T06:04:25.302Z,41.15
2022-08-05T06:06:52.372Z,41.53
2022-08-05T06:09:35.343Z,41.23
2022-08-05T06:12:06.669Z,40.71
2022-08-05T06:14:36.681Z,40.15
2022-08-05T06:17:21.897Z,40.26
2022-08-05T06:19:57.000Z,40.02
2022-08-05T06:22:29.239Z,39.52
2022-08-05T06:24:56.240Z,39.48
2022-08-05T06:28:12.136Z,39.48
2022-08-05T06:30:17.617Z,39.33
2022-08-05T06:32:47.189Z,38.89
2022-08-05T06:35:21.835Z,39.01
2022-08-05T06:38:09.797Z,38.85
2022-08-05T06:40:44.537Z,38.26
2022-08-05T06:43:51.761Z,38.10
2022-08-05T06:46:03.888Z,37.88
2022-08-05T06:48:53.524Z,37.25
2022-08-05T06:51:29.089Z,36.85
2022-08-05T06:54:03.470Z,36.89
2022-08-05T06:56:34.429Z,36.94
2022-08-05T06:59:03.392Z,36.77
2022-08-05T07:01:32.929Z,36.23
2022-08-05T07:04:02.299Z,36.56
2022-08-05T07:06:29.915Z,35.77
2022-08-05T07:08:59.145Z,34.61
2022-08-05T07:11:28.617Z,35.16
2022-08-05T07:14:15.492Z,35.25
2022-08-05T07:18:00.014Z,34.83
2022-08-05T07:22:28.682Z,34.43
2022-08-05T07:25:24.079Z,33.83
2022-08-05T07:27:58.772Z,33.70
2022-08-05T07:30:34.744Z,33.36
2022-08-05T07:33:10.593Z,32.28
2022-08-05T07:36:02.889Z,32.24
2022-08-05T07:38:33.288Z,32.07
2022-08-05T07:42:09.395Z,31.97
2022-08-05T07:43:57.459Z,31.54
2022-08-05T07:46:29.537Z,31.59
2022-08-05T07:49:02.903Z,31.31
2022-08-05T07:51:40.904Z,30.69
2022-08-05T07:54:23.329Z,30.87
2022-08-05T07:57:13.916Z,30.42
2022-08-05T07:59:41.551Z,30.27
2022-08-05T08:02:16.286Z,30.07
2022-08-05T08:04:49.195Z,29.69
2022-08-05T08:07:22.113Z,28.68
2022-08-05T08:09:52.268Z,28.61
2022-08-05T08:12:33.540Z,28.50
2022-08-05T08:15:09.528Z,28.38
2022-08-05T08:17:45.982Z,28.32
2022-08-05T08:20:42.981Z,28.13
2022-08-05T08:23:03.973Z,28.19
2022-08-05T08:25:59.329Z,27.41
2022-08-05T08:28:18.303Z,25.74
2022-08-05T08:30:47.732Z,26.00
2022-08-05T08:33:16.798Z,25.43
2022-08-05T08:35:53.152Z,25.43
2022-08-05T08:38:35.210Z,25.29
2022-08-05T08:41:08.575Z,25.31
2022-08-05T08:45:21.001Z,25.07
2022-08-05T08:46:31.654Z,23.96
2022-08-05T08:49:17.329Z,24.74
2022-08-05T08:52:04.220Z,25.05
2022-08-05T08:54:36.225Z,25.17
2022-08-05T08:57:11.195Z,24.28
2022-08-05T08:59:39.098Z,24.19
2022-08-05T09:02:08.977Z,24.68
2022-08-05T09:04:58.578Z,23.75
2022-08-05T09:07:28.910Z,23.43
2022-08-05T09:09:56.433Z,24.24
2022-08-05T09:12:27.435Z,24.26
2022-08-05T09:15:06.122Z,24.27
2022-08-05T09:17:42.220Z,23.59
2022-08-05T09:20:36.164Z,23.76
2022-08-05T09:23:18.578Z,23.96
2022-08-05T09:26:00.858Z,23.13
2022-08-05T09:28:32.317Z,22.85
2022-08-05T09:31:43.899Z,22.82
2022-08-05T09:34:04.427Z,23.12
2022-08-05T09:36:59.958Z,22.15
2022-08-05T09:39:45.215Z,22.07
2022-08-05T09:42:23.039Z,21.95
2022-08-05T09:44:56.438Z,21.53
2022-08-05T09:47:36.394Z,21.99
2022-08-05T09:50:18.136Z,20.42
2022-08-05T09:53:01.652Z,20.64
2022-08-05T09:55:58.217Z,21.03
2022-08-05T09:58:26.580Z,20.71
2022-08-05T10:00:58.910Z,20.86
2022-08-05T10:03:26.213Z,21.21
2022-08-05T10:06:21.768Z,20.13
2022-08-05T10:08:53.733Z,19.78
2022-08-05T10:11:22.884Z,19.38
2022-08-05T10:13:54.516Z,19.84
2022-08-05T10:16:41.629Z,19.61
2022-08-05T10:19:23.609Z,19.35
2022-08-05T10:21:59.348Z,19.84
2022-08-05T10:24:27.362Z,19.54
2022-08-05T10:27:00.639Z,19.52
2022-08-05T10:30:06.668Z,19.17
2022-08-05T10:32:53.045Z,19.08
2022-08-05T10:35:06.891Z,18.87
2022-08-05T10:37:40.123Z,19.39
2022-08-05T10:40:28.202Z,18.92
2022-08-05T10:43:04.692Z,19.40
2022-08-05T10:45:41.662Z,18.73
2022-08-05T10:48:52.674Z,18.29
2022-08-05T10:51:29.185Z,18.25
2022-08-05T10:54:01.794Z,18.07
2022-08-05T10:56:45.095Z,18.16
2022-08-05T11:00:03.553Z,17.84
2022-08-05T11:02:34.836Z,17.72
2022-08-05T11:05:09.348Z,17.79
2022-08-05T11:08:02.521Z,17.49
2022-08-05T11:10:38.130Z,17.82
2022-08-05T11:13:39.934Z,17.69
2022-08-05T11:16:23.316Z,17.76
2022-08-05T11:20:11.435Z,18.15
2022-08-05T11:22:49.712Z,17.11
2022-08-05T11:26:04.518Z,17.76
2022-08-05T11:28:17.252Z,17.18
2022-08-05T11:31:01.627Z,16.34
2022-08-05T11:33:46.640Z,16.34
2022-08-05T11:36:33.983Z,16.43
2022-08-05T11:39:01.936Z,16.12
2022-08-05T11:41:54.613Z,16.12
2022-08-05T11:44:40.849Z,15.75
2022-08-05T11:47:15.265Z,16.25
2022-08-05T11:49:58.675Z,15.77
2022-08-05T11:52:29.419Z,16.13
2022-08-05T11:55:07.343Z,16.09
2022-08-05T11:58:08.002Z,15.94
2022-08-05T12:00:31.700Z,15.36
2022-08-05T12:03:15.718Z,15.99
2022-08-05T12:05:51.227Z,16.25
2022-08-05T12:08:18.834Z,16.20
2022-08-05T12:10:49.708Z,16.04
2022-08-05T12:13:47.659Z,16.00
2022-08-05T12:16:15.069Z,15.27
2022-08-05T12:18:52.484Z,15.48
2022-08-05T12:21:20.969Z,14.70
2022-08-05T12:24:08.989Z,14.67
2022-08-05T12:26:36.990Z,14.34
2022-08-05T12:29:09.582Z,13.86
2022-08-05T12:31:43.498Z,14.34
2022-08-05T12:34:21.346Z,14.21
2022-08-05T12:36:50.287Z,14.19
2022-08-05T12:39:17.778Z,14.41
2022-08-05T12:41:45.830Z,14.02
2022-08-05T12:44:32.712Z,14.90
2022-08-05T12:47:02.158Z,15.24
2022-08-05T12:50:03.935Z,15.36
2022-08-05T12:52:42.191Z,13.95
2022-08-05T12:55:26.603Z,12.97
2022-08-05T12:58:50.347Z,13.15
2022-08-05T13:02:01.385Z,13.18
2022-08-05T13:03:42.526Z,13.58
2022-08-05T13:06:17.536Z,13.89
2022-08-05T13:08:51.524Z,13.40
2022-08-05T13:12:01.206Z,13.80
2022-08-05T13:14:19.592Z,13.53
2022-08-05T13:16:51.820Z,13.10
2022-08-05T13:19:21.405Z,12.89
2022-08-05T13:21:52.570Z,12.73
2022-08-05T13:24:36.312Z,13.17
2022-08-05T13:27:11.357Z,13.09
2022-08-05T13:29:59.469Z,13.62
2022-08-05T13:32:42.042Z,13.02
2022-08-05T13:35:14.458Z,12.09
2022-08-05T13:37:55.529Z,12.92
2022-08-05T13:40:36.766Z,12.81
2022-08-05T13:43:12.183Z,12.49
2022-08-05T13:45:43.310Z,12.58
2022-08-05T13:48:57.827Z,13.17
2022-08-05T13:51:08.101Z,13.52
2022-08-05T13:53:48.210Z,13.63
2022-08-05T13:56:18.442Z,13.54
2022-08-05T13:58:53.162Z,14.09
2022-08-05T14:01:25.944Z,13.91
2022-08-05T14:04:21.891Z,13.71
2022-08-05T14:06:58.730Z,13.68
2022-08-05T14:09:43.034Z,13.84
2022-08-05T14:12:17.413Z,12.98
2022-08-05T14:14:46.142Z,13.08
2022-08-05T14:17:16.946Z,12.76
2022-08-05T14:19:55.144Z,12.97
2022-08-05T14:22:23.976Z,12.57
2022-08-05T14:24:57.351Z,13.18
2022-08-05T14:27:24.357Z,13.23
2022-08-05T14:29:55.372Z,13.74
2022-08-05T14:32:27.686Z,13.17
2022-08-05T14:34:56.926Z,12.14
2022-08-05T14:37:48.146Z,13.12
2022-08-05T14:40:14.257Z,12.97
2022-08-05T14:42:44.164Z,12.85
2022-08-05T14:45:11.519Z,12.67
2022-08-05T14:48:05.027Z,12.72
2022-08-05T14:50:25.523Z,12.87
2022-08-05T14:52:57.679Z,13.00
2022-08-05T14:55:38.443Z,12.86
2022-08-05T14:58:11.347Z,12.67
2022-08-05T15:00:58.492Z,12.56
2022-08-05T15:03:33.064Z,12.46
2022-08-05T15:06:07.803Z,12.54
2022-08-05T15:09:01.146Z,12.31
2022-08-05T15:11:51.920Z,12.42
2022-08-05T15:14:33.511Z,12.35
2022-08-05T15:17:03.844Z,12.06
2022-08-05T15:19:31.848Z,12.20
2022-08-05T15:22:01.333Z,12.61
2022-08-05T15:24:29.588Z,12.94
2022-08-05T15:26:57.816Z,12.29
2022-08-05T15:29:30.219Z,12.69
2022-08-05T15:32:03.166Z,12.63
2022-08-05T15:34:32.294Z,12.89
2022-08-05T15:37:04.811Z,13.28
2022-08-05T15:41:04.619Z,12.25
2022-08-05T15:42:55.733Z,12.56
2022-08-05T15:45:10.520Z,12.47
2022-08-05T15:47:41.681Z,12.83
2022-08-05T15:50:15.383Z,12.71
2022-08-05T15:52:53.048Z,12.53
2022-08-05T15:55:24.454Z,13.27
2022-08-05T15:57:52.707Z,12.61
2022-08-05T16:00:30.635Z,12.48
2022-08-05T16:03:07.711Z,12.62
2022-08-05T16:05:34.729Z,12.68
2022-08-05T16:08:07.161Z,12.50
2022-08-05T16:10:35.317Z,12.59
2022-08-05T16:13:03.260Z,12.42
2022-08-05T16:15:32.775Z,12.57
2022-08-05T16:18:01.000Z,12.59
2022-08-05T16:20:31.209Z,12.59
2022-08-05T16:22:59.373Z,12.58
2022-08-05T16:25:34.196Z,12.35
2022-08-05T16:28:06.529Z,12.35
2022-08-05T16:30:36.938Z,12.69
2022-08-05T16:33:03.802Z,13.14
2022-08-05T16:35:33.453Z,13.19
2022-08-05T16:38:18.448Z,13.17
2022-08-05T16:40:55.814Z,12.19
2022-08-05T16:43:33.039Z,12.92
2022-08-05T16:46:04.415Z,12.61
2022-08-05T16:48:38.463Z,12.39
2022-08-05T16:51:09.276Z,12.38
2022-08-05T16:54:04.304Z,12.40
2022-08-05T16:56:30.752Z,12.34
2022-08-05T16:58:58.398Z,12.60
2022-08-05T17:01:25.624Z,12.25
2022-08-05T17:03:52.718Z,12.57
2022-08-05T17:06:20.685Z,12.33
2022-08-05T17:08:54.163Z,12.14
2022-08-05T17:11:25.617Z,12.44
2022-08-05T17:14:05.751Z,12.28
2022-08-05T17:16:37.916Z,12.57
2022-08-05T17:19:07.286Z,12.93
2022-08-05T17:21:37.412Z,13.06
2022-08-05T17:24:30.101Z,12.95
2022-08-05T17:26:58.088Z,13.00
2022-08-05T17:29:33.288Z,13.08
2022-08-05T17:32:11.262Z,13.24
2022-08-05T17:34:43.662Z,13.19
2022-08-05T17:37:27.213Z,12.94
2022-08-05T17:39:59.738Z,13.36
2022-08-05T17:42:31.991Z,13.25
2022-08-05T17:45:17.863Z,13.26
2022-08-05T17:47:53.391Z,13.64
2022-08-05T17:50:27.636Z,13.66
2022-08-05T17:52:59.166Z,13.90
2022-08-05T17:55:38.368Z,14.09
2022-08-05T17:58:12.274Z,14.10
2022-08-05T18:00:45.117Z,14.38
2022-08-05T18:03:48.375Z,14.78
2022-08-05T18:06:11.217Z,14.80
2022-08-05T18:08:44.845Z,15.00
2022-08-05T18:11:24.253Z,15.23
2022-08-05T18:14:13.201Z,15.46
2022-08-05T18:16:51.016Z,15.18
2022-08-05T18:19:22.896Z,15.39
2022-08-05T18:22:07.850Z,15.88
2022-08-05T18:24:38.040Z,16.02
2022-08-05T18:27:12.422Z,16.11
2022-08-05T18:29:54.004Z,16.47
2022-08-05T18:32:28.123Z,16.80
2022-08-05T18:34:57.767Z,17.16
2022-08-05T18:37:33.524Z,17.29
2022-08-05T18:41:50.536Z,17.76
2022-08-05T18:42:50.955Z,18.35
2022-08-05T18:45:19.644Z,18.01
2022-08-05T18:47:50.144Z,18.12
2022-08-05T18:50:45.268Z,18.72
2022-08-05T18:53:20.593Z,18.67
2022-08-05T18:55:51.474Z,18.91
2022-08-05T18:58:18.690Z,18.73
2022-08-05T19:00:54.752Z,18.83
2022-08-05T19:03:53.453Z,19.05
2022-08-05T19:06:18.992Z,19.16
2022-08-05T19:08:49.323Z,19.22
2022-08-05T19:11:16.501Z,19.78
2022-08-05T19:14:00.886Z,20.19
2022-08-05T19:16:36.954Z,20.06
2022-08-05T19:19:14.307Z,20.03
2022-08-05T19:21:41.823Z,19.78
2022-08-05T19:24:12.624Z,20.17
2022-08-05T19:26:43.738Z,20.16
2022-08-05T19:29:23.875Z,20.24
2022-08-05T19:31:57.333Z,20.28
2022-08-05T19:34:24.951Z,20.51
2022-08-05T19:36:52.040Z,20.75
2022-08-05T19:39:19.507Z,21.13
2022-08-05T19:42:06.059Z,21.70
2022-08-05T19:44:40.223Z,21.92
2022-08-05T19:47:15.228Z,22.01
2022-08-05T19:49:43.474Z,21.94
2022-08-05T19:52:31.205Z,22.05
2022-08-05T19:55:07.011Z,21.83
2022-08-05T19:58:07.153Z,22.15
2022-08-05T20:00:36.002Z,22.18
2022-08-05T20:03:05.227Z,22.24
2022-08-05T20:05:50.113Z,22.18
2022-08-05T20:08:19.746Z,22.23
2022-08-05T20:10:49.742Z,22.20
2022-08-05T20:13:17.715Z,22.24
2022-08-05T20:15:52.503Z,22.18
2022-08-05T20:18:33.094Z,22.47
2022-08-05T20:21:04.702Z,23.10
2022-08-05T20:23:40.479Z,23.02
2022-08-05T20:26:19.552Z,23.55
2022-08-05T20:28:51.020Z,24.04
2022-08-05T20:31:21.964Z,24.29
2022-08-05T20:33:50.628Z,24.82
2022-08-05T20:36:20.630Z,25.07
2022-08-05T20:38:53.494Z,25.15
2022-08-05T20:41:26.832Z,25.67
2022-08-05T20:43:59.551Z,25.72
2022-08-05T20:46:30.236Z,25.70
2022-08-05T20:48:57.252Z,25.96
2022-08-05T20:51:24.039Z,26.01
2022-08-05T20:53:56.872Z,26.39
2022-08-05T20:56:29.899Z,26.56
2022-08-05T20:58:59.961Z,26.90
2022-08-05T21:01:41.575Z,26.72
2022-08-05T21:04:10.743Z,26.95
2022-08-05T21:06:45.489Z,26.70
2022-08-05T21:09:15.024Z,26.43
2022-08-05T21:12:11.014Z,26.55
2022-08-05T21:14:34.921Z,26.71
2022-08-05T21:17:06.271Z,26.92
2022-08-05T21:19:47.422Z,27.03
2022-08-05T21:22:18.602Z,26.95
2022-08-05T21:24:51.913Z,26.81
2022-08-05T21:27:25.455Z,26.99
2022-08-05T21:29:58.467Z,27.07
2022-08-05T21:32:29.294Z,26.82
2022-08-05T21:35:17.361Z,26.82
2022-08-05T21:37:53.471Z,26.90
2022-08-05T21:40:23.119Z,26.81
2022-08-05T21:42:52.061Z,26.93
2022-08-05T21:45:25.118Z,26.91
2022-08-05T21:47:55.621Z,27.10
2022-08-05T21:50:26.460Z,27.58
2022-08-05T21:52:59.017Z,27.28
2022-08-05T21:56:00.883Z,27.29
2022-08-05T21:58:20.392Z,27.57
2022-08-05T22:00:55.781Z,27.83
2022-08-05T22:03:48.223Z,27.91
2022-08-05T22:06:10.654Z,27.78
2022-08-05T22:08:42.613Z,27.92
2022-08-05T22:11:15.576Z,27.94
2022-08-05T22:14:19.746Z,28.11
2022-08-05T22:16:41.722Z,28.38
2022-08-05T22:20:03.414Z,28.26
2022-08-05T22:22:06.105Z,28.70
2022-08-05T22:24:53.587Z,29.27
2022-08-05T22:28:08.275Z,29.46
2022-08-05T22:30:32.266Z,29.64
2022-08-05T22:33:15.139Z,29.55
2022-08-05T22:35:48.537Z,30.16
2022-08-05T22:38:15.860Z,30.26
2022-08-05T22:40:49.871Z,30.59
2022-08-05T22:43:36.973Z,30.71
2022-08-05T22:46:12.165Z,31.22
2022-08-05T22:48:48.251Z,31.25
2022-08-05T22:51:15.983Z,31.18
2022-08-05T22:53:51.875Z,31.51
2022-08-05T22:56:30.010Z,31.64
2022-08-05T22:59:00.102Z,31.67
2022-08-05T23:02:04.237Z,31.89
2022-08-05T23:04:20.065Z,31.84
2022-08-05T23:06:47.858Z,32.04
2022-08-05T23:09:27.194Z,31.91
2022-08-05T23:12:01.995Z,32.15
2022-08-05T23:14:32.240Z,31.96
2022-08-05T23:17:24.043Z,32.11
2022-08-05T23:19:57.461Z,32.34
2022-08-05T23:22:27.318Z,32.43
2022-08-05T23:24:55.432Z,32.48
2022-08-05T23:27:22.849Z,32.47
2022-08-05T23:29:51.054Z,32.57
2022-08-05T23:32:22.750Z,33.10
2022-08-05T23:34:50.815Z,33.48
2022-08-05T23:37:18.106Z,34.17
2022-08-05T23:39:54.600Z,34.61
2022-08-05T23:42:23.545Z,35.14
2022-08-05T23:44:57.246Z,35.33
2022-08-05T23:47:25.096Z,35.22
2022-08-05T23:49:55.656Z,35.60
2022-08-05T23:52:30.516Z,35.79
2022-08-05T23:55:00.477Z,35.65
2022-08-05T23:57:29.180Z,36.08
